createdAt,value
2022-08-21T00:02:23.910Z,100.00
2022-08-21T00:04:56.523Z,100.00
2022-08-21T00:07:24.122Z,100.00
2022-08-21T00:09:52.544Z,100.00
2022-08-21T00:12:19.153Z,100.00
2022-08-21T00:14:45.719Z,100.00
2022-08-21T00:17:13.298Z,100.00
2022-08-21T00:19:40.124Z,100.00
2022-08-21T00:22:06.652Z,100.00
2022-08-21T00:24:33.197Z,100.00
2022-08-21T00:26:59.813Z,100.00
2022-08-21T00:29:26.460Z,100.00
2022-08-21T00:31:52.931Z,100.00
2022-08-21T00:34:19.497Z,100.00
2022-08-21T00:36:46.039Z,100.00
2022-08-21T00:39:12.594Z,100.00
2022-08-21T00:41:40.441Z,100.00
2022-08-21T00:44:09.592Z,100.00
2022-08-21T00:46:37.420Z,100.00
2022-08-21T00:49:06.125Z,100.00
2022-08-21T00:51:48.910Z,100.00
2022-08-21T00:54:18.618Z,100.00
2022-08-21T00:56:48.961Z,100.00
2022-08-21T00:59:17.767Z,100.00
2022-08-21T01:01:44.490Z,100.00
2022-08-21T01:04:11.013Z,100.00
2022-08-21T01:06:37.471Z,100.00
2022-08-21T01:09:04.187Z,100.00
2022-08-21T01:11:31.991Z,100.00
2022-08-21T01:13:58.929Z,100.00
2022-08-21T01:16:25.795Z,100.00
2022-08-21T01:18:52.764Z,100.00
2022-08-21T01:21:28.204Z,100.00
2022-08-21T01:23:57.364Z,100.00
2022-08-21T01:26:33.953Z,100.00
2022-08-21T01:29:16.345Z,100.00
2022-08-21T01:31:43.245Z,100.00
2022-08-21T01:34:13.318Z,100.00
2022-08-21T01:36:40.318Z,100.00
2022-08-21T01:39:07.038Z,100.00
2022-08-21T01:41:33.576Z,100.00
2022-08-21T01:44:00.440Z,100.00
2022-08-21T01:46:27.289Z,100.00
2022-08-21T01:48:53.885Z,100.00
2022-08-21T01:51:20.551Z,100.00
2022-08-21T01:53:47.125Z,100.00
2022-08-21T01:56:15.769Z,100.00
2022-08-21T01:58:44.087Z,100.00
2022-08-21T02:01:11.284Z,100.00
2022-08-21T02:03:38.773Z,100.00
2022-08-21T02:06:07.811Z,100.00
2022-08-21T02:08:34.986Z,100.00
2022-08-21T02:11:01.762Z,100.00
2022-08-21T02:13:28.388Z,100.00
2022-08-21T02:15:55.029Z,100.00
2022-08-21T02:18:21.587Z,100.00
2022-08-21T02:20:55.675Z,100.00
2022-08-21T02:23:26.543Z,100.00
2022-08-21T02:25:55.746Z,100.00
2022-08-21T02:28:22.546Z,100.00
2022-08-21T02:30:49.874Z,100.00
2022-08-21T02:33:16.903Z,100.00
2022-08-21T02:35:46.339Z,100.00
2022-08-21T02:38:16.318Z,100.00
2022-08-21T02:40:48.201Z,100.00
2022-08-21T02:43:19.583Z,100.00
2022-08-21T02:45:46.811Z,100.00
2022-08-21T02:48:18.260Z,100.00
2022-08-21T02:50:52.796Z,100.00
2022-08-21T02:53:19.987Z,100.00
2022-08-21T02:55:48.664Z,100.00
2022-08-21T02:58:19.590Z,100.00
2022-08-21T03:00:46.653Z,100.00
2022-08-21T03:03:15.411Z,100.00
2022-08-21T03:05:43.938Z,100.00
2022-08-21T03:08:13.525Z,100.00
2022-08-21T03:10:43.468Z,100.00
2022-08-21T03:13:10.716Z,100.00
2022-08-21T03:15:37.960Z,100.00
2022-08-21T03:18:06.461Z,100.00
2022-08-21T03:20:34.673Z,100.00
2022-08-21T03:23:02.457Z,100.00
2022-08-21T03:25:39.563Z,100.00
2022-08-21T03:28:09.285Z,100.00
2022-08-21T03:30:39.962Z,100.00
2022-08-21T03:33:06.570Z,100.00
2022-08-21T03:35:33.112Z,100.00
2022-08-21T03:37:59.689Z,100.00
2022-08-21T03:40:26.956Z,100.00
2022-08-21T03:42:53.733Z,100.00
2022-08-21T03:45:21.049Z,100.00
2022-08-21T03:47:58.211Z,100.00
2022-08-21T03:50:27.206Z,100.00
2022-08-21T03:52:53.944Z,100.00
2022-08-21T03:55:20.609Z,100.00
2022-08-21T03:57:47.336Z,100.00
2022-08-21T04:00:16.105Z,100.00
2022-08-21T04:02:44.572Z,100.00
2022-08-21T04:05:12.846Z,100.00
2022-08-21T04:07:39.740Z,100.00
2022-08-21T04:10:07.939Z,100.00
2022-08-21T04:12:34.501Z,100.00
2022-08-21T04:15:02.767Z,100.00
2022-08-21T04:17:29.290Z,100.00
2022-08-21T04:19:56.028Z,100.00
2022-08-21T04:22:23.265Z,100.00
2022-08-21T04:24:50.852Z,100.00
2022-08-21T04:27:19.440Z,100.00
2022-08-21T04:29:46.273Z,100.00
2022-08-21T04:32:12.759Z,100.00
2022-08-21T04:34:39.281Z,100.00
2022-08-21T04:37:05.795Z,100.00
2022-08-21T04:39:32.407Z,100.00
2022-08-21T04:41:58.900Z,100.00
2022-08-21T04:44:25.731Z,100.00
2022-08-21T04:46:52.216Z,100.00
2022-08-21T04:49:18.768Z,100.00
2022-08-21T04:51:45.317Z,100.00
2022-08-21T04:54:17.267Z,100.00
2022-08-21T04:56:49.747Z,100.00
2022-08-21T04:59:22.068Z,100.00
2022-08-21T05:01:49.205Z,100.00
2022-08-21T05:04:19.264Z,100.00
2022-08-21T05:06:48.992Z,100.00
2022-08-21T05:09:20.420Z,100.00
2022-08-21T05:11:47.879Z,100.00
2022-08-21T05:14:14.502Z,100.00
2022-08-21T05:16:42.688Z,100.00
2022-08-21T05:19:09.603Z,100.00
2022-08-21T05:21:38.445Z,100.00
2022-08-21T05:24:05.131Z,100.00
2022-08-21T05:26:31.716Z,100.00
2022-08-21T05:28:59.216Z,100.00
2022-08-21T05:31:26.090Z,100.00
2022-08-21T05:33:52.588Z,100.00
2022-08-21T05:36:23.336Z,100.00
2022-08-21T05:38:50.093Z,100.00
2022-08-21T05:41:16.750Z,100.00
2022-08-21T05:43:43.434Z,100.00
2022-08-21T05:46:10.153Z,100.00
2022-08-21T05:48:37.529Z,100.00
2022-08-21T05:51:10.696Z,100.00
2022-08-21T05:53:38.228Z,100.00
2022-08-21T05:56:05.148Z,100.00
2022-08-21T05:58:33.742Z,100.00
2022-08-21T06:01:01.673Z,100.00
2022-08-21T06:03:30.958Z,100.00
2022-08-21T06:05:57.701Z,100.00
2022-08-21T06:08:25.119Z,100.00
2022-08-21T06:10:53.513Z,100.00
2022-08-21T06:13:21.377Z,100.00
2022-08-21T06:15:48.302Z,100.00
2022-08-21T06:18:15.040Z,100.00
2022-08-21T06:20:42.275Z,100.00
2022-08-21T06:23:09.011Z,100.00
2022-08-21T06:25:36.263Z,100.00
2022-08-21T06:28:08.872Z,100.00
2022-08-21T06:30:37.711Z,100.00
2022-08-21T06:33:04.667Z,100.00
2022-08-21T06:35:31.250Z,100.00
2022-08-21T06:37:58.429Z,100.00
2022-08-21T06:40:26.742Z,100.00
2022-08-21T06:42:53.511Z,100.00
2022-08-21T06:45:20.305Z,100.00
2022-08-21T06:47:46.806Z,100.00
2022-08-21T06:50:13.614Z,100.00
2022-08-21T06:52:40.429Z,100.00
2022-08-21T06:55:09.362Z,100.00
2022-08-21T06:57:36.509Z,100.00
2022-08-21T07:00:07.455Z,100.00
2022-08-21T07:02:34.683Z,100.00
2022-08-21T07:05:01.633Z,100.00
2022-08-21T07:07:45.606Z,100.00
2022-08-21T07:10:22.435Z,100.00
2022-08-21T07:13:00.627Z,100.00
2022-08-21T07:15:31.152Z,100.00
2022-08-21T07:17:59.765Z,100.00
2022-08-21T07:20:30.181Z,100.00
2022-08-21T07:23:00.511Z,100.00
2022-08-21T07:25:27.576Z,100.00
2022-08-21T07:27:54.594Z,100.00
2022-08-21T07:30:21.780Z,100.00
2022-08-21T07:32:50.303Z,100.00
2022-08-21T07:35:18.502Z,100.00
2022-08-21T07:37:45.230Z,100.00
2022-08-21T07:40:12.212Z,100.00
2022-08-21T07:42:47.085Z,100.00
2022-08-21T07:45:14.976Z,100.00
2022-08-21T07:47:42.946Z,98.27
2022-08-21T07:50:12.218Z,97.35
2022-08-21T07:52:39.784Z,95.79
2022-08-21T07:55:07.254Z,93.13
2022-08-21T07:57:34.366Z,91.91
2022-08-21T08:00:00.923Z,89.78
2022-08-21T08:02:30.311Z,89.89
2022-08-21T08:05:08.823Z,88.98
2022-08-21T08:07:35.400Z,83.23
2022-08-21T08:10:03.501Z,83.04
2022-08-21T08:12:30.598Z,80.90
2022-08-21T08:15:01.672Z,77.54
2022-08-21T08:17:28.545Z,75.48
2022-08-21T08:19:55.281Z,72.45
2022-08-21T08:22:26.944Z,70.50
2022-08-21T08:24:54.420Z,71.89
2022-08-21T08:27:21.588Z,72.39
2022-08-21T08:29:49.000Z,69.81
2022-08-21T08:32:16.127Z,70.33
2022-08-21T08:34:42.672Z,72.40
2022-08-21T08:37:10.827Z,73.80
2022-08-21T08:39:38.026Z,73.39
2022-08-21T08:42:33.709Z,75.13
2022-08-21T08:45:18.921Z,75.13
2022-08-21T08:47:50.143Z,74.80
2022-08-21T08:50:22.458Z,73.42
2022-08-21T08:52:55.152Z,73.26
2022-08-21T08:55:41.092Z,73.45
2022-08-21T08:58:09.932Z,74.75
2022-08-21T09:00:36.460Z,76.11
2022-08-21T09:03:04.341Z,73.88
2022-08-21T09:05:46.517Z,75.40
2022-08-21T09:08:23.457Z,76.05
2022-08-21T09:10:58.537Z,75.92
2022-08-21T09:13:46.683Z,75.62
2022-08-21T09:16:20.641Z,75.11
2022-08-21T09:19:25.114Z,75.43
2022-08-21T09:22:02.973Z,73.22
2022-08-21T09:25:00.536Z,74.64
2022-08-21T09:27:27.062Z,75.96
2022-08-21T09:29:55.534Z,76.49
2022-08-21T09:32:37.024Z,76.19
2022-08-21T09:35:14.918Z,74.61
2022-08-21T09:37:53.545Z,74.23
2022-08-21T09:40:24.345Z,72.18
2022-08-21T09:43:04.997Z,72.66
2022-08-21T09:45:34.063Z,71.87
2022-08-21T09:48:26.270Z,70.62
2022-08-21T09:50:55.080Z,71.28
2022-08-21T09:53:25.366Z,69.01
2022-08-21T09:56:21.539Z,68.96
2022-08-21T09:58:52.785Z,66.86
2022-08-21T10:01:23.486Z,68.20
2022-08-21T10:04:06.079Z,67.90
2022-08-21T10:06:32.896Z,68.06
2022-08-21T10:09:20.943Z,67.42
2022-08-21T10:12:11.127Z,67.16
2022-08-21T10:14:40.709Z,65.06
2022-08-21T10:17:48.128Z,64.70
2022-08-21T10:20:23.165Z,62.53
2022-08-21T10:23:12.539Z,61.92
2022-08-21T10:25:56.369Z,61.27
2022-08-21T10:29:06.036Z,60.35
2022-08-21T10:31:58.612Z,59.80
2022-08-21T10:34:57.013Z,58.82
2022-08-21T10:37:42.215Z,57.75
2022-08-21T10:40:22.911Z,59.09
2022-08-21T10:43:08.107Z,59.90
2022-08-21T10:45:43.112Z,57.99
2022-08-21T10:48:21.006Z,56.01
2022-08-21T10:51:10.628Z,57.11
2022-08-21T10:54:00.371Z,56.92
2022-08-21T10:56:32.114Z,57.95
2022-08-21T10:59:20.815Z,55.46
2022-08-21T11:02:10.595Z,55.75
2022-08-21T11:05:02.668Z,55.06
2022-08-21T11:07:54.324Z,54.65
2022-08-21T11:10:30.646Z,55.05
2022-08-21T11:13:02.985Z,55.09
2022-08-21T11:15:44.793Z,55.22
2022-08-21T11:18:22.268Z,53.31
2022-08-21T11:21:05.500Z,50.71
2022-08-21T11:23:42.301Z,53.51
2022-08-21T11:26:20.433Z,51.64
2022-08-21T11:28:59.118Z,51.54
2022-08-21T11:31:41.363Z,50.24
2022-08-21T11:34:19.892Z,51.11
2022-08-21T11:36:58.941Z,50.84
2022-08-21T11:39:56.135Z,50.04
2022-08-21T11:42:34.018Z,50.41
2022-08-21T11:45:15.085Z,50.13
2022-08-21T11:48:08.447Z,50.91
2022-08-21T11:50:39.580Z,50.40
2022-08-21T11:53:13.150Z,49.67
2022-08-21T11:55:43.475Z,48.52
2022-08-21T11:58:23.277Z,48.41
2022-08-21T12:01:08.540Z,47.82
2022-08-21T12:03:38.977Z,48.54
2022-08-21T12:06:12.886Z,48.32
2022-08-21T12:08:42.735Z,46.19
2022-08-21T12:11:18.195Z,47.28
2022-08-21T12:14:18.591Z,47.09
2022-08-21T12:16:48.294Z,47.39
2022-08-21T12:19:28.735Z,45.99
2022-08-21T12:22:07.762Z,45.63
2022-08-21T12:24:39.294Z,45.39
2022-08-21T12:27:20.341Z,46.15
2022-08-21T12:29:49.964Z,45.39
2022-08-21T12:32:16.424Z,46.22
2022-08-21T12:34:49.454Z,45.83
2022-08-21T12:37:30.850Z,46.24
2022-08-21T12:40:01.875Z,46.16
2022-08-21T12:42:42.267Z,44.54
2022-08-21T12:45:42.779Z,44.55
2022-08-21T12:48:19.947Z,44.06
2022-08-21T12:50:54.764Z,43.13
2022-08-21T12:53:41.437Z,41.53
2022-08-21T12:56:14.245Z,42.95
2022-08-21T12:58:45.856Z,42.96
2022-08-21T13:01:20.524Z,42.61
2022-08-21T13:03:47.646Z,41.38
2022-08-21T13:06:37.428Z,41.98
2022-08-21T13:09:12.911Z,42.06
2022-08-21T13:11:42.107Z,41.88
2022-08-21T13:14:20.725Z,41.25
2022-08-21T13:16:48.633Z,40.87
2022-08-21T13:19:23.935Z,41.89
2022-08-21T13:21:52.024Z,41.05
2022-08-21T13:27:31.060Z,40.87
2022-08-21T13:30:07.119Z,41.25
2022-08-21T13:32:38.662Z,41.59
2022-08-21T13:35:15.513Z,40.61
2022-08-21T13:37:44.184Z,39.41
2022-08-21T13:40:14.460Z,40.41
2022-08-21T13:42:44.079Z,40.98
2022-08-21T13:45:17.021Z,40.74
2022-08-21T13:47:47.103Z,40.41
2022-08-21T13:50:16.033Z,40.46
2022-08-21T13:52:56.108Z,40.59
2022-08-21T13:55:26.443Z,40.90
2022-08-21T13:58:04.127Z,41.17
2022-08-21T14:00:36.124Z,40.71
2022-08-21T14:03:42.673Z,40.57
2022-08-21T14:06:22.461Z,40.17
2022-08-21T14:08:54.741Z,39.33
2022-08-21T14:11:22.504Z,39.83
2022-08-21T14:13:56.432Z,38.70
2022-08-21T14:16:47.518Z,38.93
2022-08-21T14:19:27.520Z,39.52
2022-08-21T14:21:55.567Z,39.49
2022-08-21T14:24:25.338Z,40.10
2022-08-21T14:26:59.413Z,39.28
2022-08-21T14:29:28.646Z,39.42
2022-08-21T14:32:01.275Z,39.90
2022-08-21T14:34:35.773Z,40.14
2022-08-21T14:37:02.977Z,40.27
2022-08-21T14:39:29.466Z,39.60
2022-08-21T14:41:58.250Z,40.08
2022-08-21T14:44:24.778Z,39.76
2022-08-21T14:46:56.143Z,39.75
2022-08-21T14:49:28.651Z,38.92
2022-08-21T14:51:58.702Z,39.91
2022-08-21T14:54:32.454Z,40.22
2022-08-21T14:57:06.737Z,40.25
2022-08-21T14:59:34.055Z,40.09
2022-08-21T15:02:01.282Z,39.08
2022-08-21T15:04:28.136Z,39.12
2022-08-21T15:06:54.655Z,38.92
2022-08-21T15:09:21.202Z,38.91
2022-08-21T15:11:47.992Z,39.77
2022-08-21T15:14:21.198Z,40.11
2022-08-21T15:16:49.306Z,39.76
2022-08-21T15:19:15.887Z,38.22
2022-08-21T15:21:42.467Z,38.49
2022-08-21T15:24:09.111Z,38.80
2022-08-21T15:26:37.026Z,39.27
2022-08-21T15:29:07.414Z,39.01
2022-08-21T15:31:34.572Z,38.16
2022-08-21T15:34:01.060Z,38.07
2022-08-21T15:36:27.723Z,38.56
2022-08-21T15:38:54.537Z,38.39
2022-08-21T15:41:21.198Z,39.04
2022-08-21T15:43:51.082Z,37.32
2022-08-21T15:46:20.146Z,37.02
2022-08-21T15:48:47.511Z,36.93
2022-08-21T15:51:15.434Z,34.24
2022-08-21T15:53:42.995Z,33.01
2022-08-21T15:56:24.788Z,31.02
2022-08-21T15:58:53.883Z,30.94
2022-08-21T16:01:22.339Z,32.12
2022-08-21T16:03:52.076Z,32.71
2022-08-21T16:06:18.902Z,33.03
2022-08-21T16:09:05.330Z,32.32
2022-08-21T16:11:31.937Z,30.87
2022-08-21T16:13:58.694Z,29.04
2022-08-21T16:16:25.785Z,28.65
2022-08-21T16:18:53.176Z,28.06
2022-08-21T16:21:21.549Z,24.89
2022-08-21T16:23:49.615Z,25.93
2022-08-21T16:26:18.540Z,24.52
2022-08-21T16:28:47.244Z,24.88
2022-08-21T16:31:15.510Z,23.94
2022-08-21T16:33:46.207Z,23.57
2022-08-21T16:36:13.722Z,22.89
2022-08-21T16:38:41.897Z,22.96
2022-08-21T16:41:12.641Z,22.90
2022-08-21T16:43:41.833Z,22.95
2022-08-21T16:46:11.386Z,22.80
2022-08-21T16:48:38.751Z,23.08
2022-08-21T16:51:05.836Z,22.51
2022-08-21T16:53:33.145Z,22.13
2022-08-21T16:56:00.006Z,22.32
2022-08-21T16:58:30.291Z,21.79
2022-08-21T17:00:58.693Z,21.99
2022-08-21T17:03:40.780Z,21.92
2022-08-21T17:06:09.051Z,22.94
2022-08-21T17:08:36.133Z,24.06
2022-08-21T17:11:03.246Z,24.40
2022-08-21T17:13:30.491Z,24.50
2022-08-21T17:15:57.314Z,25.29
2022-08-21T17:18:25.262Z,25.06
2022-08-21T17:20:52.551Z,25.54
2022-08-21T17:23:19.759Z,26.00
2022-08-21T17:25:51.206Z,26.81
2022-08-21T17:28:23.588Z,28.31
2022-08-21T17:30:52.441Z,28.79
2022-08-21T17:33:19.823Z,29.93
2022-08-21T17:35:47.330Z,30.99
2022-08-21T17:38:14.923Z,31.58
2022-08-21T17:40:42.040Z,32.15
2022-08-21T17:43:13.161Z,32.66
2022-08-21T17:45:40.931Z,33.20
2022-08-21T17:48:07.568Z,33.60
2022-08-21T17:50:34.332Z,34.35
2022-08-21T17:53:00.889Z,35.83
2022-08-21T17:55:29.498Z,36.21
2022-08-21T17:57:57.224Z,36.62
2022-08-21T18:00:25.960Z,37.68
2022-08-21T18:03:01.859Z,38.68
2022-08-21T18:05:28.823Z,38.92
2022-08-21T18:07:55.663Z,39.99
2022-08-21T18:10:22.484Z,40.04
2022-08-21T18:12:49.451Z,40.36
2022-08-21T18:15:20.096Z,41.82
2022-08-21T18:17:50.768Z,41.52
2022-08-21T18:20:21.969Z,41.74
2022-08-21T18:22:48.556Z,42.89
2022-08-21T18:25:15.608Z,43.32
2022-08-21T18:27:45.929Z,43.95
2022-08-21T18:30:16.798Z,44.88
2022-08-21T18:32:44.384Z,45.20
2022-08-21T18:35:12.841Z,45.63
2022-08-21T18:37:39.341Z,46.25
2022-08-21T18:40:09.100Z,46.78
2022-08-21T18:42:41.461Z,46.83
2022-08-21T18:45:18.268Z,47.33
2022-08-21T18:47:48.867Z,47.37
2022-08-21T18:50:19.205Z,47.93
2022-08-21T18:53:04.071Z,48.37
2022-08-21T18:55:35.101Z,48.77
2022-08-21T18:58:02.270Z,49.03
2022-08-21T19:00:33.252Z,49.25
2022-08-21T19:03:01.015Z,49.66
2022-08-21T19:05:27.873Z,50.46
2022-08-21T19:07:55.246Z,51.06
2022-08-21T19:10:27.575Z,51.51
2022-08-21T19:13:12.227Z,51.84
2022-08-21T19:15:41.857Z,52.03
2022-08-21T19:18:12.303Z,52.28
2022-08-21T19:20:42.182Z,52.80
2022-08-21T19:23:12.678Z,53.36
2022-08-21T19:25:42.478Z,53.84
2022-08-21T19:28:12.824Z,53.81
2022-08-21T19:30:45.757Z,54.08
2022-08-21T19:33:23.138Z,54.53
2022-08-21T19:35:51.035Z,54.88
2022-08-21T19:38:19.656Z,55.72
2022-08-21T19:40:46.243Z,56.08
2022-08-21T19:43:13.197Z,56.47
2022-08-21T19:45:39.840Z,56.87
2022-08-21T19:48:06.852Z,57.21
2022-08-21T19:50:33.924Z,57.84
2022-08-21T19:53:01.074Z,58.60
2022-08-21T19:55:27.864Z,58.86
2022-08-21T19:57:55.725Z,58.86
2022-08-21T20:00:22.461Z,59.20
2022-08-21T20:02:51.141Z,59.38
2022-08-21T20:05:18.360Z,59.91
2022-08-21T20:07:45.359Z,60.01
2022-08-21T20:10:13.286Z,60.46
2022-08-21T20:12:41.740Z,61.19
2022-08-21T20:15:09.404Z,61.68
2022-08-21T20:17:36.370Z,62.25
2022-08-21T20:20:04.935Z,62.79
2022-08-21T20:22:31.427Z,63.51
2022-08-21T20:24:58.665Z,63.46
2022-08-21T20:27:27.535Z,63.56
2022-08-21T20:29:54.425Z,63.81
2022-08-21T20:32:22.428Z,64.27
2022-08-21T20:34:52.088Z,64.48
2022-08-21T20:37:37.401Z,64.69
2022-08-21T20:40:10.871Z,65.34
2022-08-21T20:42:45.366Z,65.55
2022-08-21T20:45:17.440Z,65.63
2022-08-21T20:47:45.568Z,65.73
2022-08-21T20:50:17.841Z,65.56
2022-08-21T20:52:49.647Z,66.06
2022-08-21T20:55:29.327Z,66.51
2022-08-21T20:58:35.114Z,66.69
2022-08-21T21:01:07.056Z,66.93
2022-08-21T21:03:42.357Z,67.19
2022-08-21T21:06:28.392Z,67.22
2022-08-21T21:09:19.297Z,67.57
2022-08-21T21:11:54.949Z,67.68
2022-08-21T21:14:37.245Z,67.72
2022-08-21T21:17:13.730Z,67.83
2022-08-21T21:19:51.504Z,68.16
2022-08-21T21:22:26.692Z,68.44
2022-08-21T21:25:04.101Z,68.23
2022-08-21T21:27:39.026Z,68.79
2022-08-21T21:30:14.413Z,69.37
2022-08-21T21:32:41.681Z,69.47
2022-08-21T21:35:10.732Z,70.20
2022-08-21T21:37:50.349Z,70.45
2022-08-21T21:40:28.853Z,70.72
2022-08-21T21:43:31.674Z,71.13
2022-08-21T21:46:24.204Z,71.25
2022-08-21T21:49:11.520Z,71.40
2022-08-21T21:52:18.349Z,71.27
2022-08-21T21:55:03.984Z,71.01
2022-08-21T21:57:49.417Z,71.55
2022-08-21T22:00:29.168Z,71.92
2022-08-21T22:03:19.981Z,72.24
2022-08-21T22:06:04.377Z,72.26
2022-08-21T22:09:24.528Z,72.83
2022-08-21T22:12:03.203Z,73.22
2022-08-21T22:14:43.938Z,73.23
2022-08-21T22:17:30.457Z,74.04
2022-08-21T22:20:00.906Z,74.14
2022-08-21T22:22:32.391Z,74.90
2022-08-21T22:25:15.433Z,74.84
2022-08-21T22:27:42.509Z,75.48
2022-08-21T22:30:16.072Z,75.72
2022-08-21T22:35:36.103Z,76.35
2022-08-21T22:38:19.466Z,76.62
2022-08-21T22:40:49.446Z,76.86
2022-08-21T22:43:21.136Z,77.28
2022-08-21T22:46:01.439Z,77.67
2022-08-21T22:48:32.532Z,77.37
2022-08-21T22:51:11.392Z,77.72
2022-08-21T22:53:42.549Z,78.29
2022-08-21T22:56:26.193Z,77.97
2022-08-21T22:58:57.614Z,77.99
2022-08-21T23:01:24.016Z,78.07
2022-08-21T23:03:54.371Z,78.14
2022-08-21T23:06:44.777Z,78.46
2022-08-21T23:09:30.385Z,79.03
2022-08-21T23:12:21.092Z,78.90
2022-08-21T23:14:54.581Z,79.07
2022-08-21T23:17:37.888Z,79.65
2022-08-21T23:20:15.136Z,79.72
2022-08-21T23:22:45.668Z,79.99
2022-08-21T23:25:21.530Z,80.00
2022-08-21T23:28:01.497Z,80.15
2022-08-21T23:30:46.740Z,80.32
2022-08-21T23:33:42.342Z,80.77
2022-08-21T23:37:05.850Z,80.81
2022-08-21T23:39:38.386Z,80.75
2022-08-21T23:42:15.552Z,81.23
2022-08-21T23:48:53.308Z,81.74
2022-08-21T23:51:27.447Z,81.82
2022-08-21T23:54:33.993Z,82.71
2022-08-21T23:57:09.190Z,82.90
2022-08-21T23:59:54.063Z,83.61
